Time;durP1;ratioP1;P1;durP2;ratioP2;P2;SDS_P1;SDS_P2;PMS_P1;PMS_P2;Temp;Humidity;BMP_temperature;BMP_pressure;BME280_temperature;BME280_humidity;BME280_pressure;Samples;Min_cycle;Max_cycle;Signal;HPM_P1;HPM_P2
2023/03/24 00:01:24;;;;;;;0.70;0.70;;;;;;;6.63;82.94;99018.94;4471568;32;33464;-74
2023/03/24 00:03:53;;;;;;;0.62;0.62;;;;;;;6.55;83.80;99020.66;4485590;32;34142;-74
2023/03/24 00:06:22;;;;;;;0.70;0.70;;;;;;;6.35;85.54;99017.19;4458249;32;34271;-74
2023/03/24 00:08:51;;;;;;;2.05;1.95;;;;;;;6.57;84.63;99024.13;4471383;32;34303;-74
2023/03/24 00:11:20;;;;;;;2.92;2.65;;;;;;;6.28;85.81;99010.28;4485441;32;32675;-74
2023/03/24 00:13:49;;;;;;;1.83;1.70;;;;;;;6.25;86.03;99011.16;4485397;32;34787;-74
2023/03/24 00:16:18;;;;;;;0.85;0.85;;;;;;;6.33;88.68;99016.34;4485443;32;34999;-74
2023/03/24 00:18:51;;;;;;;0.90;0.90;;;;;;;6.63;87.47;99010.31;4471221;32;34464;-74
2023/03/24 00:21:24;;;;;;;0.60;0.60;;;;;;;6.44;87.29;99014.62;4470957;32;33702;-74
2023/03/24 00:23:57;;;;;;;0.70;0.70;;;;;;;6.48;86.28;99013.78;4485306;32;33867;-74
2023/03/24 00:26:25;;;;;;;0.95;0.95;;;;;;;6.38;87.49;99012.03;4471440;32;35112;-74
2023/03/24 00:28:54;;;;;;;0.55;0.55;;;;;;;6.34;87.11;99010.31;4471279;32;34372;-74
2023/03/24 00:31:23;;;;;;;1.17;1.15;;;;;;;6.11;87.49;99012.88;4471466;32;33520;-74
2023/03/24 00:33:52;;;;;;;1.70;1.60;;;;;;;6.08;87.64;99003.37;4471541;32;34699;-74
2023/03/24 00:36:23;;;;;;;1.83;1.67;;;;;;;6.14;87.70;98995.66;4471088;32;35044;-74
2023/03/24 00:38:52;;;;;;;0.60;0.60;;;;;;;6.03;88.45;98999.91;4471010;32;34472;-74
2023/03/24 00:41:23;;;;;;;0.98;0.98;;;;;;;5.99;88.64;98993.03;4471004;32;32815;-74
2023/03/24 00:43:57;;;;;;;1.12;1.10;;;;;;;6.13;87.76;98993.91;4471177;32;33981;-74
2023/03/24 00:46:26;;;;;;;0.68;0.68;;;;;;;5.89;88.85;98987.81;4471326;32;35043;-74
2023/03/24 00:49:02;;;;;;;0.50;0.50;;;;;;;6.15;89.11;98984.44;4457754;32;33660;-74
2023/03/24 00:51:35;;;;;;;1.05;1.05;;;;;;;6.03;87.68;98976.66;4471021;32;34128;-74
2023/03/24 00:54:06;;;;;;;0.60;0.60;;;;;;;5.88;89.62;98974.88;4470926;32;33768;-74
2023/03/24 00:56:36;;;;;;;0.90;0.90;;;;;;;6.14;90.61;98962.03;4470460;32;34377;-74
2023/03/24 00:59:08;;;;;;;0.98;0.93;;;;;;;6.32;89.19;98955.13;4484866;32;34469;-74
2023/03/24 01:01:39;;;;;;;0.90;0.90;;;;;;;6.94;84.41;98949.03;4471419;32;33381;-74
2023/03/24 01:04:09;;;;;;;1.10;1.10;;;;;;;7.00;86.52;98946.41;4470867;32;33889;-74
2023/03/24 01:06:38;;;;;;;1.62;1.52;;;;;;;6.36;87.43;98946.53;4470736;32;35943;-74
2023/03/24 01:09:06;;;;;;;0.52;0.52;;;;;;;6.38;87.56;98947.38;4484806;32;34440;-74
2023/03/24 01:11:40;;;;;;;2.70;0.82;;;;;;;6.57;88.77;98956.00;4470503;32;34208;-74
2023/03/24 01:14:09;;;;;;;1.23;1.23;;;;;;;6.34;88.72;98949.09;4484539;32;34701;-74
2023/03/24 01:16:39;;;;;;;0.70;0.70;;;;;;;6.46;86.75;98943.09;4470598;32;35049;-74
2023/03/24 01:19:10;;;;;;;1.20;1.20;;;;;;;6.35;87.16;98935.31;4485918;32;34474;-74
2023/03/24 01:21:40;;;;;;;5.12;0.93;;;;;;;6.74;86.44;98932.69;4473141;32;33710;-74
2023/03/24 01:24:09;;;;;;;3.15;2.62;;;;;;;6.73;86.61;98931.81;4486939;32;34067;-74
2023/03/24 01:26:37;;;;;;;0.88;0.88;;;;;;;6.40;87.82;98927.56;4486734;32;35009;-74
2023/03/24 01:29:06;;;;;;;2.08;1.02;;;;;;;6.57;88.48;98919.78;4486894;32;34521;-74
2023/03/24 01:31:35;;;;;;;1.35;1.25;;;;;;;6.89;87.87;98918.87;4486740;32;33550;-74
2023/03/24 01:34:03;;;;;;;0.70;0.70;;;;;;;6.58;86.80;98917.19;4487071;32;33906;-74
2023/03/24 01:36:32;;;;;;;1.70;1.60;;;;;;;6.35;87.75;98916.34;4459954;32;35840;-74
2023/03/24 01:39:00;;;;;;;1.08;0.98;;;;;;;6.26;87.61;98912.03;4486656;32;34362;-74
2023/03/24 01:41:36;;;;;;;0.60;0.60;;;;;;;6.19;89.70;98913.75;4473086;32;33417;-74
2023/03/24 01:44:29;;;;;;;0.50;0.50;;;;;;;5.85;90.68;98916.28;4472920;32;33888;-74
2023/03/24 01:46:57;;;;;;;2.50;1.02;;;;;;;6.31;89.65;98912.06;4472963;32;34997;-74
2023/03/24 01:49:52;;;;;;;2.62;1.48;;;;;;;6.53;86.57;98912.88;4459617;32;34037;-74
2023/03/24 01:52:27;;;;;;;4.32;1.55;;;;;;;6.86;85.51;98909.38;4472718;32;33829;-74
2023/03/24 01:55:00;;;;;;;3.42;3.12;;;;;;;6.95;86.83;98911.94;4459942;32;33156;-74
2023/03/24 01:57:29;;;;;;;2.20;2.10;;;;;;;7.17;86.07;98917.91;4472894;32;35138;-74
2023/03/24 02:00:11;;;;;;;1.25;1.23;;;;;;;6.63;87.45;98918.03;4472815;32;33931;-74
2023/03/24 02:02:44;;;;;;;1.60;1.50;;;;;;;6.92;85.02;98914.53;4472698;32;34249;-74
2023/03/24 02:05:14;;;;;;;1.50;0.80;;;;;;;6.92;82.88;98911.94;4459963;32;33063;-74
2023/03/24 02:07:51;;;;;;;2.25;2.05;;;;;;;6.81;86.24;98899.03;4486694;32;34925;-74
2023/03/24 02:10:21;;;;;;;3.83;2.25;;;;;;;6.53;85.78;98898.25;4486729;32;34336;-74
2023/03/24 02:12:49;;;;;;;0.85;0.85;;;;;;;6.32;88.12;98904.28;4472589;32;33501;-74
2023/03/24 02:15:18;;;;;;;1.20;0.95;;;;;;;6.52;88.40;98903.41;4472400;32;33753;-74
2023/03/24 02:18:27;;;;;;;1.08;1.08;;;;;;;6.60;87.06;98902.53;4473098;32;34965;-74
2023/03/24 02:21:05;;;;;;;0.50;0.50;;;;;;;6.68;85.68;98906.84;4430340;32;35004;-74
2023/03/24 02:23:53;;;;;;;1.52;1.42;;;;;;;6.23;85.81;98902.56;4472742;32;33166;-74
2023/03/24 02:26:23;;;;;;;;;;;;;;;6.18;87.30;98901.72;4486712;32;34032;-74
2023/03/24 02:29:02;;;;;;;0.60;0.60;;;;;;;6.15;89.08;98904.28;4485998;32;35361;-74
2023/03/24 02:32:11;;;;;;;0.50;0.50;;;;;;;6.25;88.16;98907.75;4459290;32;34425;-74
2023/03/24 02:35:14;;;;;;;0.80;0.80;;;;;;;6.21;87.15;98906.88;4472319;32;34363;-74
2023/03/24 02:38:13;;;;;;;0.75;0.75;;;;;;;6.24;86.92;98916.34;4486461;32;33894;-74
2023/03/24 02:40:51;;;;;;;2.65;2.45;;;;;;;6.11;86.63;98910.34;4486453;32;35200;-74
2023/03/24 02:43:46;;;;;;;1.27;1.27;;;;;;;5.65;90.34;98915.41;4486648;32;34581;-74
2023/03/24 02:46:16;;;;;;;0.75;0.75;;;;;;;6.08;90.62;98902.56;4472715;32;33578;-74
2023/03/24 02:49:09;;;;;;;1.25;0.88;;;;;;;5.85;91.06;98898.22;4486593;32;33918;-74
2023/03/24 02:52:03;;;;;;;1.98;1.80;;;;;;;6.13;90.46;98895.69;4472187;32;34286;-74
2023/03/24 02:54:39;;;;;;;0.80;0.80;;;;;;;5.72;91.44;98882.69;4486244;32;35294;-74
2023/03/24 02:57:30;;;;;;;1.48;1.37;;;;;;;5.84;nan;98882.69;4472293;32;33447;-74
2023/03/24 03:00:12;;;;;;;1.85;1.42;;;;;;;5.95;91.31;98874.94;4486403;32;33892;-74
2023/03/24 03:02:45;;;;;;;1.05;1.05;;;;;;;5.93;90.66;98879.25;4486386;32;35129;-74
2023/03/24 03:05:40;;;;;;;0.50;0.50;;;;;;;5.78;89.52;98880.97;4459131;32;33876;-74
2023/03/24 03:08:11;;;;;;;1.77;1.67;;;;;;;6.14;88.98;98879.31;4478326;32;33575;-74
2023/03/24 03:10:45;;;;;;;0.73;0.73;;;;;;;6.14;90.54;98868.09;4472105;32;34696;-74
2023/03/24 03:13:23;;;;;;;0.90;0.90;;;;;;;5.88;90.62;98859.47;4472181;32;34911;-74
2023/03/24 03:15:54;;;;;;;0.90;0.90;;;;;;;6.03;91.77;98871.53;4486106;32;34390;-74
2023/03/24 03:18:32;;;;;;;0.80;0.80;;;;;;;6.41;90.99;98874.97;4486080;32;34360;-74
2023/03/24 03:21:10;;;;;;;1.73;1.62;;;;;;;6.56;89.02;98876.66;4472110;32;33931;-74
2023/03/24 03:23:46;;;;;;;2.35;1.73;;;;;;;6.26;89.56;98874.16;4486217;32;35140;-74
2023/03/24 03:26:18;;;;;;;3.10;2.90;;;;;;;6.35;88.11;98862.91;4471969;32;35173;-74
2023/03/24 03:28:56;;;;;;;1.05;1.05;;;;;;;6.54;87.96;98863.72;4471683;32;32826;-74
2023/03/24 03:31:34;;;;;;;1.87;1.77;;;;;;;6.92;87.42;98859.28;4472826;32;34718;-74
2023/03/24 03:34:16;;;;;;;3.00;2.70;;;;;;;6.79;86.93;98859.38;4471975;32;35865;-74
2023/03/24 03:36:52;;;;;;;1.02;1.02;;;;;;;6.75;85.87;98862.81;4471821;32;34515;-74
2023/03/24 03:39:34;;;;;;;1.95;1.85;;;;;;;6.57;85.02;98868.91;4485886;32;33622;-74
2023/03/24 03:42:05;;;;;;;1.12;1.08;;;;;;;6.19;88.67;98866.37;4471639;32;34022;-74
2023/03/24 03:44:34;;;;;;;0.82;0.82;;;;;;;6.50;86.21;98869.78;4472226;32;35837;-74
2023/03/24 03:47:03;;;;;;;1.05;1.05;;;;;;;6.01;87.18;98868.09;4459231;32;34488;-74
2023/03/24 03:49:32;;;;;;;0.77;0.77;;;;;;;5.64;90.83;98872.34;4472247;32;33544;-74
2023/03/24 03:52:01;;;;;;;2.05;1.95;;;;;;;6.54;87.74;98871.50;4471954;32;34681;-74
2023/03/24 03:54:30;;;;;;;0.70;0.70;;;;;;;6.49;88.14;98862.88;4471977;32;35015;-74
2023/03/24 03:56:59;;;;;;;1.23;1.23;;;;;;;6.22;87.84;98864.66;4471519;32;34471;-74
2023/03/24 03:59:29;;;;;;;0.75;0.75;;;;;;;6.57;85.17;98862.88;4471924;32;33609;-74
2023/03/24 04:02:24;;;;;;;3.10;2.45;;;;;;;6.02;86.89;98868.97;4485533;32;34776;-74
2023/03/24 04:05:30;;;;;;;1.73;1.62;;;;;;;6.30;87.52;98862.06;4457848;32;35994;-74
2023/03/24 04:08:10;;;;;;;1.60;1.50;;;;;;;5.93;88.51;98858.59;4485886;32;35333;-74
2023/03/24 04:10:44;;;;;;;0.93;0.93;;;;;;;5.83;89.36;98853.44;4471870;32;33556;-74
2023/03/24 04:13:29;;;;;;;1.77;1.67;;;;;;;5.79;88.39;98850.81;4471571;32;33859;-74
2023/03/24 04:16:47;;;;;;;0.55;0.55;;;;;;;5.49;89.06;98855.97;4485687;32;35054;-74
2023/03/24 04:19:27;;;;;;;0.90;0.90;;;;;;;5.50;88.31;98855.09;4452222;32;34616;-74
2023/03/24 04:22:24;;;;;;;0.62;0.62;;;;;;;5.15;89.09;98859.31;4485405;32;33384;-74
2023/03/24 04:25:00;;;;;;;0.70;0.70;;;;;;;5.65;88.22;98856.00;4471099;32;33130;-74
2023/03/24 04:28:06;;;;;;;1.52;1.48;;;;;;;5.48;91.47;98859.41;4471747;32;34987;-74
2023/03/24 04:30:36;;;;;;;1.00;1.00;;;;;;;5.44;90.60;98851.66;4471912;32;34357;-74
2023/03/24 04:33:29;;;;;;;0.60;0.60;;;;;;;5.03;92.86;98858.44;4485543;32;32530;-74
2023/03/24 04:36:05;;;;;;;1.02;1.02;;;;;;;5.38;91.93;98855.06;4474952;32;34728;-74
2023/03/24 04:38:37;;;;;;;3.40;1.17;;;;;;;4.94;91.03;98848.94;4471861;32;35895;-74
2023/03/24 04:41:06;;;;;;;0.65;0.65;;;;;;;5.29;91.69;98855.06;4471590;32;34420;-74
2023/03/24 04:43:36;;;;;;;1.58;1.50;;;;;;;4.95;91.80;98862.69;4471355;32;34226;-74
2023/03/24 04:46:07;;;;;;;1.05;1.02;;;;;;;4.80;91.01;98855.75;4471335;32;34678;-74
2023/03/24 04:48:36;;;;;;;1.85;1.75;;;;;;;4.90;92.77;98861.81;4471453;32;35093;-74
2023/03/24 04:51:07;;;;;;;1.40;1.40;;;;;;;5.15;92.80;98856.75;4471154;32;35279;-74
2023/03/24 04:53:37;;;;;;;0.98;0.98;;;;;;;5.07;91.25;98857.56;4472280;32;33668;-74
2023/03/24 04:56:05;;;;;;;4.03;1.10;;;;;;;5.36;89.45;98864.53;4487294;32;33871;-74
2023/03/24 04:58:34;;;;;;;2.05;1.67;;;;;;;5.20;89.43;98862.78;4473087;32;35979;-74
2023/03/24 05:01:04;;;;;;;1.12;1.12;;;;;;;5.47;91.18;98860.28;4472572;32;33786;-74
2023/03/24 05:03:36;;;;;;;2.58;2.17;;;;;;;5.51;89.42;98867.16;4473366;32;33517;-74
2023/03/24 05:06:07;;;;;;;3.05;2.12;;;;;;;5.43;89.52;98874.03;4486944;32;33968;-74
2023/03/24 05:08:35;;;;;;;3.70;2.45;;;;;;;5.36;91.15;98880.03;4472728;32;35230;-74
2023/03/24 05:11:03;;;;;;;1.65;1.55;;;;;;;5.38;90.62;98886.06;4486885;32;35220;-74
2023/03/24 05:13:32;;;;;;;1.35;1.25;;;;;;;5.63;90.24;98878.38;4473230;32;33362;-75
2023/03/24 05:16:01;;;;;;;0.75;0.75;;;;;;;5.46;89.34;98883.50;4473072;32;33938;-74
2023/03/24 05:18:29;;;;;;;2.72;1.25;;;;;;;5.77;89.41;98876.69;4473253;32;35721;-74
2023/03/24 05:20:59;;;;;;;0.60;0.60;;;;;;;5.65;89.82;98880.09;4486811;32;35337;-74
2023/03/24 05:23:27;;;;;;;0.62;0.62;;;;;;;5.81;90.43;98869.81;4487045;32;33568;-74
2023/03/24 05:25:55;;;;;;;1.12;1.12;;;;;;;6.32;91.40;98872.37;4473079;32;34553;-74
2023/03/24 05:28:24;;;;;;;2.03;1.92;;;;;;;6.62;90.53;98872.34;4451521;32;272532;-74
2023/03/24 05:30:53;;;;;;;0.57;0.57;;;;;;;6.96;88.79;98872.22;4486867;32;35122;-74
2023/03/24 05:48:57;;;;;;;2.10;1.87;;;;;;;10.29;77.06;98889.63;4472507;32;291746;-73
2023/03/24 05:51:27;;;;;;;3.15;2.85;;;;;;;10.29;77.06;98889.63;4466506;32;33346;-74
2023/03/24 05:53:56;;;;;;;1.02;1.02;;;;;;;9.82;74.26;98894.69;4465431;32;33167;-73
2023/03/24 05:56:24;;;;;;;2.60;2.40;;;;;;;9.83;76.30;98890.38;4466532;32;34996;-74
2023/03/24 05:58:54;;;;;;;3.20;2.70;;;;;;;10.32;74.81;98887.00;4466530;32;35132;-73
2023/03/24 06:01:24;;;;;;;1.12;1.12;;;;;;;11.24;70.79;98891.38;4465514;32;34291;-73
2023/03/24 06:03:54;;;;;;;4.47;4.12;;;;;;;11.52;71.72;98884.69;4466627;32;33866;-74
2023/03/24 06:06:22;;;;;;;1.75;1.65;;;;;;;11.17;66.94;98888.91;4465058;32;34539;-73
2023/03/24 06:08:53;;;;;;;2.35;2.25;;;;;;;11.96;66.12;98887.19;4466558;32;34192;-74
2023/03/24 06:11:24;;;;;;;3.00;1.60;;;;;;;12.62;61.64;98880.34;4466546;32;33447;-73
2023/03/24 06:13:57;;;;;;;2.80;2.53;;;;;;;12.62;63.23;98895.16;4452326;32;32374;-74
2023/03/24 06:16:27;;;;;;;1.65;1.37;;;;;;;12.88;62.69;98887.47;4466409;32;35857;-74
2023/03/24 06:18:55;;;;;;;1.90;1.80;;;;;;;13.18;63.04;98902.31;4464985;32;35195;-73
2023/03/24 06:21:29;;;;;;;3.80;2.75;;;;;;;13.26;62.26;98900.34;4466559;32;31971;-74
2023/03/24 06:24:02;;;;;;;2.45;2.20;;;;;;;13.79;59.33;98897.94;4466442;32;33883;-74
2023/03/24 06:26:31;;;;;;;1.48;1.05;;;;;;;14.52;56.13;98892.97;4466268;32;35123;-74
2023/03/24 06:29:01;;;;;;;1.50;1.40;;;;;;;15.15;52.86;98891.62;4465198;32;34322;-74
2023/03/24 06:31:31;;;;;;;2.95;2.22;;;;;;;15.30;52.15;98894.59;4466256;32;33450;-74
2023/03/24 06:34:00;;;;;;;4.87;3.03;;;;;;;14.84;52.58;98902.38;4466411;32;33934;-74
2023/03/24 06:36:28;;;;;;;2.35;1.87;;;;;;;15.78;50.69;98895.47;4466153;32;35837;-74
2023/03/24 06:38:56;;;;;;;4.00;3.22;;;;;;;16.25;50.80;98884.78;4465917;32;34249;-74
2023/03/24 06:41:27;;;;;;;1.87;1.75;;;;;;;14.92;55.03;98879.34;4466332;32;33352;-74
2023/03/24 06:43:56;;;;;;;2.05;1.23;;;;;;;15.55;52.46;98878.81;4466226;32;34746;-74
2023/03/24 06:46:25;;;;;;;2.08;1.98;;;;;;;16.52;49.34;98872.28;4466260;32;34921;-74
2023/03/24 06:48:53;;;;;;;1.92;1.83;;;;;;;17.21;46.35;98876.31;4459702;32;34218;-74
2023/03/24 06:51:22;;;;;;;2.05;1.83;;;;;;;17.91;45.23;98868.69;4454727;32;34092;-74
2023/03/24 06:53:52;;;;;;;2.90;2.70;;;;;;;17.72;45.15;98871.34;4455537;32;33984;-74
2023/03/24 06:56:21;;;;;;;2.47;2.28;;;;;;;18.16;43.50;98865.75;4455445;32;35144;-74
2023/03/24 06:58:50;;;;;;;3.25;1.75;;;;;;;18.55;43.10;98865.50;4455313;32;34235;-74
2023/03/24 07:01:19;;;;;;;5.03;4.53;;;;;;;18.37;43.30;98856.75;4455427;32;34275;-74
2023/03/24 07:03:47;;;;;;;3.03;1.75;;;;;;;18.08;42.97;98858.19;4455190;32;34773;-74
2023/03/24 07:06:18;;;;;;;1.90;1.80;;;;;;;19.19;41.45;98859.59;4455774;32;35158;-74
2023/03/24 07:08:47;;;;;;;2.33;2.15;;;;;;;18.00;44.36;98855.94;4454630;32;35133;-74
2023/03/24 07:11:16;;;;;;;3.65;2.55;;;;;;;17.46;46.44;98862.88;4454604;32;34219;-74
2023/03/24 07:13:45;;;;;;;3.53;2.55;;;;;;;17.01;47.67;98864.94;4454561;32;34764;-74
2023/03/24 07:16:13;;;;;;;1.87;1.75;;;;;;;17.41;45.90;98867.50;4455532;32;35173;-74
2023/03/24 07:18:41;;;;;;;3.17;2.92;;;;;;;17.40;46.78;98876.31;4455454;32;35137;-74
2023/03/24 07:21:10;;;;;;;3.72;3.08;;;;;;;18.06;44.42;98864.47;4454523;32;33478;-74
2023/03/24 07:23:38;;;;;;;4.87;3.37;;;;;;;17.96;44.37;98862.28;4455386;32;33832;-74
2023/03/24 07:26:07;;;;;;;2.40;2.12;;;;;;;18.44;45.23;98848.53;4455051;32;35548;-74
2023/03/24 07:28:40;;;;;;;2.05;1.73;;;;;;;18.77;43.12;98852.03;4455246;32;34534;-74
2023/03/24 07:31:09;;;;;;;4.15;3.78;;;;;;;20.09;39.06;98843.16;4455668;32;33407;-75
2023/03/24 07:33:38;;;;;;;3.03;2.80;;;;;;;20.15;39.43;98848.09;4455302;32;34084;-74
2023/03/24 07:36:07;;;;;;;13.45;2.78;;;;;;;20.41;38.66;98843.06;4454294;32;34177;-74
2023/03/24 07:38:36;;;;;;;5.35;3.22;;;;;;;20.78;37.44;98846.19;4455488;32;34365;-74
2023/03/24 07:41:08;;;;;;;2.72;1.58;;;;;;;20.86;37.92;98849.22;4455596;32;34161;-74
2023/03/24 07:43:37;;;;;;;2.25;1.67;;;;;;;20.54;37.35;98852.00;4455457;32;34830;-74
2023/03/24 07:46:06;;;;;;;1.55;1.45;;;;;;;21.57;35.49;98853.66;4455485;32;34931;-74
2023/03/24 07:48:37;;;;;;;1.30;1.25;;;;;;;19.01;38.35;98854.38;4453838;32;35171;-74
2023/03/24 07:51:06;;;;;;;2.35;2.15;;;;;;;19.19;38.05;98856.97;4455138;32;33460;-75
2023/03/24 07:53:44;;;;;;;2.83;2.60;;;;;;;20.01;40.24;98855.97;4455168;32;33997;-75
2023/03/24 07:56:14;;;;;;;1.17;1.17;;;;;;;20.94;35.93;98851.41;4455318;32;35191;-75
2023/03/24 07:58:52;;;;;;;1.77;1.52;;;;;;;20.45;35.66;98850.75;4442277;32;33632;-75
2023/03/24 08:01:22;;;;;;;1.48;1.37;;;;;;;20.72;35.62;98852.72;4454392;32;33367;-75
2023/03/24 08:03:54;;;;;;;1.42;1.33;;;;;;;20.92;34.75;98858.59;4455373;32;33949;-75
2023/03/24 08:06:23;;;;;;;2.08;1.37;;;;;;;19.82;37.09;98851.75;4455290;32;35694;-74
2023/03/24 08:08:56;;;;;;;0.60;0.60;;;;;;;20.50;35.84;98852.25;4453987;32;32740;-75
2023/03/24 08:11:25;;;;;;;2.53;2.03;;;;;;;20.62;35.83;98848.91;4453974;32;34238;-75
2023/03/24 08:13:53;;;;;;;1.52;1.20;;;;;;;19.68;37.35;98843.72;4455065;32;33966;-74
2023/03/24 08:16:23;;;;;;;1.60;1.50;;;;;;;20.27;36.16;98835.94;4453736;32;33759;-74
2023/03/24 08:18:51;;;;;;;2.37;2.17;;;;;;;19.77;37.11;98834.44;4454847;32;34995;-75
2023/03/24 08:21:19;;;;;;;2.35;1.30;;;;;;;20.37;35.98;98838.91;4454967;32;34216;-75
2023/03/24 08:23:48;;;;;;;4.78;2.62;;;;;;;19.65;37.48;98830.66;4455051;32;34752;-75
2023/03/24 08:26:16;;;;;;;1.42;1.30;;;;;;;20.08;36.37;98830.88;4454882;32;35145;-74
2023/03/24 08:28:46;;;;;;;1.12;1.08;;;;;;;20.07;36.40;98824.75;4453715;32;34198;-75
2023/03/24 08:31:14;;;;;;;0.98;0.98;;;;;;;20.22;37.25;98809.81;4454853;32;33277;-75
2023/03/24 08:33:43;;;;;;;2.35;1.67;;;;;;;20.69;36.10;98815.84;4454883;32;34046;-75
2023/03/24 08:36:13;;;;;;;2.92;1.75;;;;;;;20.68;35.75;98823.88;4454803;32;36001;-75
2023/03/24 08:38:42;;;;;;;3.90;2.37;;;;;;;21.15;35.59;98817.47;4453625;32;34458;-75
2023/03/24 08:41:10;;;;;;;2.17;1.70;;;;;;;20.38;36.26;98807.09;4454803;32;33496;-71
2023/03/24 08:43:38;;;;;;;0.98;0.98;;;;;;;19.64;37.49;98806.06;4453664;32;34079;-72
2023/03/24 08:46:10;;;;;;;1.33;1.17;;;;;;;20.11;36.58;98804.28;4453637;32;34893;-72
2023/03/24 08:48:40;;;;;;;1.85;1.37;;;;;;;19.43;37.85;98805.47;4454556;32;34596;-76
2023/03/24 08:51:11;;;;;;;0.93;0.93;;;;;;;19.71;37.88;98798.59;4453594;32;33521;-75
2023/03/24 08:53:41;;;;;;;2.28;2.08;;;;;;;19.69;38.92;98795.22;4453880;32;33840;-74
2023/03/24 08:56:10;;;;;;;0.73;0.73;;;;;;;20.13;37.63;98802.38;4453422;32;36026;-74
2023/03/24 08:58:39;;;;;;;2.50;2.08;;;;;;;20.86;36.14;98806.91;4454458;32;34258;-76
2023/03/24 09:01:07;;;;;;;0.73;0.73;;;;;;;20.47;36.24;98808.31;4453647;32;33574;-74
2023/03/24 09:03:38;;;;;;;0.90;0.90;;;;;;;20.40;37.36;98806.97;4454661;32;33911;-74
2023/03/24 09:06:07;;;;;;;1.02;1.02;;;;;;;20.48;37.45;98807.38;4454578;32;34220;-74
2023/03/24 09:08:37;;;;;;;4.03;1.45;;;;;;;20.84;35.73;98803.47;4454503;32;34329;-74
2023/03/24 09:11:18;;;;;;;1.42;1.33;;;;;;;21.45;34.35;98803.22;4453191;32;32565;-74
2023/03/24 09:13:46;;;;;;;2.28;2.10;;;;;;;22.27;34.02;98806.72;4453778;32;33888;-74
2023/03/24 09:16:16;;;;;;;3.70;2.17;;;;;;;21.05;35.14;98803.09;4440660;32;34410;-74
2023/03/24 09:18:45;;;;;;;6.70;3.40;;;;;;;21.53;35.33;98796.53;4453186;32;34456;-74
2023/03/24 09:21:13;;;;;;;2.72;2.53;;;;;;;21.81;35.25;98804.47;4454348;32;33596;-74
2023/03/24 09:23:41;;;;;;;2.12;1.92;;;;;;;22.01;35.51;98796.03;4453196;32;34383;-74
2023/03/24 09:26:10;;;;;;;1.45;1.35;;;;;;;22.59;34.07;98795.72;4453284;32;34942;-76
2023/03/24 09:28:40;;;;;;;2.22;1.65;;;;;;;22.70;33.44;98787.88;4454353;32;35215;-74
2023/03/24 09:31:11;;;;;;;1.60;1.50;;;;;;;22.10;35.40;98784.81;4454413;32;33439;-75
2023/03/24 09:33:39;;;;;;;2.55;1.35;;;;;;;22.89;33.10;98780.31;4454230;32;34700;-75
2023/03/24 09:36:10;;;;;;;1.25;1.15;;;;;;;22.67;33.96;98783.63;4453198;32;34244;-74
2023/03/24 09:38:38;;;;;;;2.92;2.70;;;;;;;23.33;32.81;98774.59;4454361;32;34040;-75
2023/03/24 09:41:15;;;;;;;1.55;1.45;;;;;;;21.21;34.97;98791.44;4454355;32;33365;-73
2023/03/24 09:43:50;;;;;;;3.58;2.35;;;;;;;21.76;35.27;98770.31;4453061;32;34796;-74
2023/03/24 09:46:36;;;;;;;1.65;1.45;;;;;;;22.33;34.32;98770.03;4454121;32;35224;-74
2023/03/24 09:49:15;;;;;;;0.50;0.50;;;;;;;22.75;33.45;98769.81;4452723;32;34351;-75
2023/03/24 09:51:44;;;;;;;1.42;1.33;;;;;;;23.57;32.41;98764.00;4454045;32;33600;-74
2023/03/24 09:54:38;;;;;;;1.60;1.50;;;;;;;22.53;34.13;98766.00;4452799;32;34844;-74
2023/03/24 09:57:23;;;;;;;1.67;1.58;;;;;;;21.58;35.13;98765.28;4452583;32;35055;-74
2023/03/24 09:59:54;;;;;;;1.23;1.08;;;;;;;22.49;34.74;98766.34;4452669;32;35281;-74
2023/03/24 10:02:23;;;;;;;1.37;1.27;;;;;;;22.64;34.49;98757.31;4452745;32;33281;-74
2023/03/24 10:04:51;;;;;;;0.57;0.52;;;;;;;21.09;36.79;98749.00;4452689;32;34848;-74
2023/03/24 10:07:36;;;;;;;0.93;0.93;;;;;;;21.59;36.53;98742.28;4453705;32;35121;-74
2023/03/24 10:10:29;;;;;;;1.33;1.27;;;;;;;22.32;34.83;98751.56;4439998;32;33611;-74
2023/03/24 10:13:06;;;;;;;1.50;1.40;;;;;;;22.52;34.96;98745.75;4452661;32;33337;-74
2023/03/24 10:16:05;;;;;;;0.45;0.45;;;;;;;23.05;33.26;98734.97;4452625;32;33935;-74
2023/03/24 10:18:42;;;;;;;1.58;1.48;;;;;;;23.85;32.44;98730.94;4435665;32;35005;-74
2023/03/24 10:21:21;;;;;;;1.95;1.35;;;;;;;24.88;30.04;98722.13;4452626;32;35103;-74
2023/03/24 10:24:22;;;;;;;4.05;2.22;;;;;;;24.23;31.92;98724.50;4453488;32;33378;-74
2023/03/24 10:27:12;;;;;;;0.65;0.65;;;;;;;24.66;30.16;98723.00;4455817;32;33846;-74
2023/03/24 10:29:41;;;;;;;1.25;1.08;;;;;;;25.53;29.50;98707.94;4454572;32;34318;-74
2023/03/24 10:32:21;;;;;;;3.20;2.45;;;;;;;25.13;28.50;98702.34;4455666;32;35260;-74
2023/03/24 10:35:08;;;;;;;0.60;0.60;;;;;;;25.00;28.69;98709.66;4454782;32;33296;-74
2023/03/24 10:37:37;;;;;;;1.92;1.75;;;;;;;25.38;29.05;98706.56;4455649;32;34593;-74
2023/03/24 10:40:15;;;;;;;0.80;0.80;;;;;;;25.65;28.31;98707.94;4455564;32;35786;-74
2023/03/24 10:42:47;;;;;;;1.17;1.10;;;;;;;26.66;27.56;98710.00;4454514;32;34425;-74
2023/03/24 10:45:37;;;;;;;0.93;0.85;;;;;;;26.59;27.44;98714.16;4455735;32;34255;-74
2023/03/24 10:48:08;;;;;;;1.37;1.15;;;;;;;26.20;28.17;98700.59;4455395;32;33912;-74
2023/03/24 10:50:43;;;;;;;0.50;0.50;;;;;;;26.00;27.83;98699.66;4455800;32;35124;-74
2023/03/24 10:53:17;;;;;;;0.70;0.70;;;;;;;25.93;27.35;98709.12;4454574;32;34382;-74
2023/03/24 10:55:49;;;;;;;0.88;0.88;;;;;;;27.26;25.94;98709.19;4455888;32;33387;-75
2023/03/24 10:58:20;;;;;;;0.75;0.73;;;;;;;25.58;28.20;98702.25;4455485;32;34045;-74
2023/03/24 11:00:49;;;;;;;0.43;0.43;;;;;;;27.67;25.82;98691.22;4454270;32;36006;-74
2023/03/24 11:03:30;;;;;;;1.33;1.23;;;;;;;29.39;24.13;98694.62;4454308;32;34517;-76
2023/03/24 11:06:01;;;;;;;0.85;0.82;;;;;;;26.04;26.68;98690.41;4454295;32;34311;-75
2023/03/24 11:08:38;;;;;;;0.60;0.60;;;;;;;27.23;25.26;98682.72;4455519;32;33937;-76
2023/03/24 11:11:31;;;;;;;1.83;1.67;;;;;;;27.08;25.20;98689.47;4455367;32;35773;-76
2023/03/24 11:14:02;;;;;;;0.75;0.70;;;;;;;26.41;26.92;98679.22;4455357;32;34431;-75
2023/03/24 11:16:35;;;;;;;4.75;2.17;;;;;;;26.39;25.94;98672.34;4455369;32;33311;-90
2023/03/24 11:19:06;;;;;;;2.80;1.27;;;;;;;28.28;24.46;98667.78;4455311;32;33939;-76
2023/03/24 11:21:35;;;;;;;0.95;0.77;;;;;;;29.13;24.14;98661.28;4455268;32;36036;-76
2023/03/24 11:24:13;;;;;;;1.42;0.95;;;;;;;29.21;22.98;98652.53;4454110;32;34668;-76
2023/03/24 11:27:00;;;;;;;1.48;1.37;;;;;;;28.79;23.12;98655.72;4455399;32;33485;-76
2023/03/24 11:29:32;;;;;;;0.30;0.30;;;;;;;28.78;23.60;98642.47;4455619;32;33932;-75
2023/03/24 11:32:09;;;;;;;0.43;0.43;;;;;;;28.71;22.37;98644.91;4441712;32;34316;-75
2023/03/24 11:34:51;;;;;;;1.12;0.98;;;;;;;28.05;23.24;98649.38;4454110;32;34377;-75
2023/03/24 11:37:24;;;;;;;5.43;1.80;;;;;;;30.16;21.47;98643.91;4454211;32;33627;-75
2023/03/24 11:40:11;;;;;;;0.30;0.30;;;;;;;28.10;22.69;98654.31;4454081;32;33945;-75
2023/03/24 11:42:46;;;;;;;1.10;0.95;;;;;;;29.14;21.60;98627.31;4455194;32;35147;-76
2023/03/24 11:45:37;;;;;;;1.15;0.88;;;;;;;28.16;22.33;98622.41;4454052;32;34591;-76
2023/03/24 11:48:23;;;;;;;0.60;0.60;;;;;;;28.67;22.10;98627.47;4453935;32;34196;-76
2023/03/24 11:50:56;;;;;;;1.37;1.27;;;;;;;28.71;22.42;98627.03;4455285;32;33937;-76
2023/03/24 11:53:29;;;;;;;2.12;1.05;;;;;;;26.91;23.99;98613.50;4454081;32;35211;-76
2023/03/24 11:56:26;;;;;;;0.30;0.30;;;;;;;27.40;23.19;98614.37;4441546;32;33704;-75
2023/03/24 11:59:03;;;;;;;0.40;0.40;;;;;;;26.20;24.99;98603.69;4449217;32;33440;-75
2023/03/24 12:01:41;;;;;;;0.62;0.62;;;;;;;24.54;26.80;98608.53;4453496;32;33318;-75
2023/03/24 12:04:41;;;;;;;0.50;0.50;;;;;;;24.32;27.33;98605.84;4454316;32;35977;-88
2023/03/24 12:07:13;;;;;;;1.20;1.12;;;;;;;24.71;28.61;98593.03;4441758;32;35069;-75
2023/03/24 12:10:11;;;;;;;0.60;0.60;;;;;;;25.04;28.87;98589.41;4455169;32;33394;-75
2023/03/24 12:12:55;;;;;;;0.70;0.70;;;;;;;25.60;27.16;98585.66;4437862;32;33857;-75
2023/03/24 12:15:42;;;;;;;0.75;0.75;;;;;;;26.13;26.88;98586.53;4455229;32;35162;-75
2023/03/24 12:18:22;;;;;;;0.45;0.45;;;;;;;25.43;26.71;98600.44;4455246;32;34623;-75
2023/03/24 12:21:28;;;;;;;0.20;0.20;;;;;;;23.64;28.45;98593.31;4440980;32;33309;-75
2023/03/24 12:24:11;;;;;;;0.90;0.68;;;;;;;24.25;28.12;98586.91;4455029;32;33966;-75
2023/03/24 12:26:41;;;;;;;0.52;0.50;;;;;;;23.92;28.49;98582.41;4441174;32;35325;-75